sensor_id;sensor_type;location;lat;lon;timestamp;temperature;humidity
14409;DHT22;7289;50.706;4.992;2023-02-01T00:01:23;6.70;99.90
14409;DHT22;7289;50.706;4.992;2023-02-01T00:03:51;6.80;99.90
14409;DHT22;7289;50.706;4.992;2023-02-01T00:06:19;6.80;99.90
14409;DHT22;7289;50.706;4.992;2023-02-01T00:08:48;6.80;99.90
14409;DHT22;7289;50.706;4.992;2023-02-01T00:11:16;6.80;99.90
14409;DHT22;7289;50.706;4.992;2023-02-01T00:13:44;6.80;99.90
14409;DHT22;7289;50.706;4.992;2023-02-01T00:16:16;6.90;99.90
14409;DHT22;7289;50.706;4.992;2023-02-01T00:18:45;6.90;99.90
14409;DHT22;7289;50.706;4.992;2023-02-01T00:21:14;6.90;99.90
14409;DHT22;7289;50.706;4.992;2023-02-01T00:23:43;6.90;99.90
14409;DHT22;7289;50.706;4.992;2023-02-01T00:26:15;6.90;99.90
14409;DHT22;7289;50.706;4.992;2023-02-01T00:28:43;7.00;99.90
14409;DHT22;7289;50.706;4.992;2023-02-01T00:31:14;6.90;99.90
14409;DHT22;7289;50.706;4.992;2023-02-01T00:33:42;7.00;99.90
14409;DHT22;7289;50.706;4.992;2023-02-01T00:36:11;7.00;99.90
14409;DHT22;7289;50.706;4.992;2023-02-01T00:38:40;7.00;99.90
14409;DHT22;7289;50.706;4.992;2023-02-01T00:41:11;7.00;99.90
14409;DHT22;7289;50.706;4.992;2023-02-01T00:43:40;7.00;99.90
14409;DHT22;7289;50.706;4.992;2023-02-01T00:46:09;7.00;99.90
14409;DHT22;7289;50.706;4.992;2023-02-01T00:48:39;7.00;99.90
14409;DHT22;7289;50.706;4.992;2023-02-01T00:51:10;7.00;99.90
14409;DHT22;7289;50.706;4.992;2023-02-01T00:53:39;7.00;99.90
14409;DHT22;7289;50.706;4.992;2023-02-01T00:56:08;7.00;99.90
14409;DHT22;7289;50.706;4.992;2023-02-01T00:58:37;7.00;99.90
14409;DHT22;7289;50.706;4.992;2023-02-01T01:01:08;7.10;99.90
14409;DHT22;7289;50.706;4.992;2023-02-01T01:03:40;7.00;99.90
14409;DHT22;7289;50.706;4.992;2023-02-01T01:06:10;7.10;99.90
14409;DHT22;7289;50.706;4.992;2023-02-01T01:08:40;7.10;99.90
14409;DHT22;7289;50.706;4.992;2023-02-01T01:11:09;7.10;99.90
14409;DHT22;7289;50.706;4.992;2023-02-01T01:13:39;7.10;99.90
14409;DHT22;7289;50.706;4.992;2023-02-01T01:16:08;7.00;99.90
14409;DHT22;7289;50.706;4.992;2023-02-01T01:18:40;7.10;99.90
14409;DHT22;7289;50.706;4.992;2023-02-01T01:21:09;7.10;99.90
14409;DHT22;7289;50.706;4.992;2023-02-01T01:23:39;7.10;99.90
14409;DHT22;7289;50.706;4.992;2023-02-01T01:26:09;7.10;99.90
14409;DHT22;7289;50.706;4.992;2023-02-01T01:28:38;7.10;99.90
14409;DHT22;7289;50.706;4.992;2023-02-01T01:31:08;7.10;99.90
14409;DHT22;7289;50.706;4.992;2023-02-01T01:33:37;7.10;99.90
14409;DHT22;7289;50.706;4.992;2023-02-01T01:36:08;7.10;99.90
14409;DHT22;7289;50.706;4.992;2023-02-01T01:38:38;7.10;99.90
14409;DHT22;7289;50.706;4.992;2023-02-01T01:41:08;7.10;99.90
14409;DHT22;7289;50.706;4.992;2023-02-01T01:43:50;7.10;99.90
14409;DHT22;7289;50.706;4.992;2023-02-01T01:46:22;7.10;99.90
14409;DHT22;7289;50.706;4.992;2023-02-01T01:48:55;7.00;99.90
14409;DHT22;7289;50.706;4.992;2023-02-01T01:51:28;7.00;99.90
14409;DHT22;7289;50.706;4.992;2023-02-01T01:54:02;7.00;99.90
14409;DHT22;7289;50.706;4.992;2023-02-01T01:56:32;7.10;99.90
14409;DHT22;7289;50.706;4.992;2023-02-01T01:59:02;7.10;99.90
14409;DHT22;7289;50.706;4.992;2023-02-01T02:01:32;7.10;99.90
14409;DHT22;7289;50.706;4.992;2023-02-01T02:04:01;7.20;99.90
14409;DHT22;7289;50.706;4.992;2023-02-01T02:06:39;7.20;99.90
14409;DHT22;7289;50.706;4.992;2023-02-01T02:09:08;7.20;99.90
14409;DHT22;7289;50.706;4.992;2023-02-01T02:11:36;7.10;99.90
14409;DHT22;7289;50.706;4.992;2023-02-01T02:14:07;7.10;99.90
14409;DHT22;7289;50.706;4.992;2023-02-01T02:19:55;7.00;99.90
14409;DHT22;7289;50.706;4.992;2023-02-01T02:29:08;7.00;99.90
14409;DHT22;7289;50.706;4.992;2023-02-01T02:32:07;6.90;99.90
14409;DHT22;7289;50.706;4.992;2023-02-01T02:34:45;6.90;99.90
14409;DHT22;7289;50.706;4.992;2023-02-01T02:37:25;6.90;99.90
14409;DHT22;7289;50.706;4.992;2023-02-01T02:40:04;7.00;99.90
14409;DHT22;7289;50.706;4.992;2023-02-01T02:42:40;7.00;99.90
14409;DHT22;7289;50.706;4.992;2023-02-01T02:45:33;7.00;99.90
14409;DHT22;7289;50.706;4.992;2023-02-01T02:48:25;6.90;99.90
14409;DHT22;7289;50.706;4.992;2023-02-01T02:51:00;6.90;99.90
14409;DHT22;7289;50.706;4.992;2023-02-01T02:53:51;7.00;99.90
14409;DHT22;7289;50.706;4.992;2023-02-01T02:56:39;6.90;99.90
14409;DHT22;7289;50.706;4.992;2023-02-01T02:59:27;7.00;99.90
14409;DHT22;7289;50.706;4.992;2023-02-01T03:02:14;7.00;99.90
14409;DHT22;7289;50.706;4.992;2023-02-01T03:05:00;7.00;99.90
14409;DHT22;7289;50.706;4.992;2023-02-01T03:08:00;7.00;99.90
14409;DHT22;7289;50.706;4.992;2023-02-01T03:10:35;7.00;99.90
14409;DHT22;7289;50.706;4.992;2023-02-01T03:13:12;6.80;99.90
14409;DHT22;7289;50.706;4.992;2023-02-01T03:15:48;6.80;99.90
14409;DHT22;7289;50.706;4.992;2023-02-01T03:18:22;6.90;99.90
14409;DHT22;7289;50.706;4.992;2023-02-01T03:20:55;6.90;99.90
14409;DHT22;7289;50.706;4.992;2023-02-01T03:23:30;6.90;99.90
14409;DHT22;7289;50.706;4.992;2023-02-01T03:26:01;7.00;99.90
14409;DHT22;7289;50.706;4.992;2023-02-01T03:28:33;7.00;99.90
14409;DHT22;7289;50.706;4.992;2023-02-01T03:31:03;6.90;99.90
14409;DHT22;7289;50.706;4.992;2023-02-01T03:33:33;6.80;99.90
14409;DHT22;7289;50.706;4.992;2023-02-01T03:36:09;6.70;99.90
14409;DHT22;7289;50.706;4.992;2023-02-01T03:38:43;6.60;99.90
14409;DHT22;7289;50.706;4.992;2023-02-01T03:41:20;6.50;99.90
14409;DHT22;7289;50.706;4.992;2023-02-01T03:43:54;6.30;99.90
14409;DHT22;7289;50.706;4.992;2023-02-01T03:46:31;6.20;99.90
14409;DHT22;7289;50.706;4.992;2023-02-01T03:49:06;6.20;99.90
14409;DHT22;7289;50.706;4.992;2023-02-01T03:51:38;6.10;99.90
14409;DHT22;7289;50.706;4.992;2023-02-01T03:54:13;6.00;99.90
14409;DHT22;7289;50.706;4.992;2023-02-01T03:56:44;5.90;99.90
14409;DHT22;7289;50.706;4.992;2023-02-01T03:59:15;5.90;99.90
14409;DHT22;7289;50.706;4.992;2023-02-01T04:01:43;5.80;99.90
14409;DHT22;7289;50.706;4.992;2023-02-01T04:04:11;5.90;99.90
14409;DHT22;7289;50.706;4.992;2023-02-01T04:06:50;5.80;99.90
14409;DHT22;7289;50.706;4.992;2023-02-01T04:09:20;5.80;99.90
14409;DHT22;7289;50.706;4.992;2023-02-01T04:11:49;5.70;99.90
14409;DHT22;7289;50.706;4.992;2023-02-01T04:14:17;5.70;99.90
14409;DHT22;7289;50.706;4.992;2023-02-01T04:16:45;5.70;99.90
14409;DHT22;7289;50.706;4.992;2023-02-01T04:19:13;5.70;99.90
14409;DHT22;7289;50.706;4.992;2023-02-01T04:21:42;5.60;99.90
14409;DHT22;7289;50.706;4.992;2023-02-01T04:24:10;5.50;99.90
14409;DHT22;7289;50.706;4.992;2023-02-01T04:26:40;5.40;99.90
14409;DHT22;7289;50.706;4.992;2023-02-01T04:29:09;5.30;99.90
14409;DHT22;7289;50.706;4.992;2023-02-01T04:31:37;5.20;99.90
14409;DHT22;7289;50.706;4.992;2023-02-01T04:34:06;5.20;99.90
14409;DHT22;7289;50.706;4.992;2023-02-01T04:36:34;5.20;99.90
14409;DHT22;7289;50.706;4.992;2023-02-01T04:39:02;5.20;99.90
14409;DHT22;7289;50.706;4.992;2023-02-01T04:41:31;5.10;99.90
14409;DHT22;7289;50.706;4.992;2023-02-01T04:44:01;5.10;99.90
14409;DHT22;7289;50.706;4.992;2023-02-01T04:46:29;5.10;99.90
14409;DHT22;7289;50.706;4.992;2023-02-01T04:48:57;5.00;99.90
14409;DHT22;7289;50.706;4.992;2023-02-01T04:51:26;5.00;99.90
14409;DHT22;7289;50.706;4.992;2023-02-01T04:53:54;5.00;99.90
14409;DHT22;7289;50.706;4.992;2023-02-01T04:56:27;4.90;99.90
14409;DHT22;7289;50.706;4.992;2023-02-01T04:58:55;4.80;99.90
14409;DHT22;7289;50.706;4.992;2023-02-01T05:01:25;4.80;99.90
14409;DHT22;7289;50.706;4.992;2023-02-01T05:03:53;4.80;99.90
14409;DHT22;7289;50.706;4.992;2023-02-01T05:06:22;4.80;99.90
14409;DHT22;7289;50.706;4.992;2023-02-01T05:08:50;4.80;99.90
14409;DHT22;7289;50.706;4.992;2023-02-01T05:11:18;4.70;99.90
14409;DHT22;7289;50.706;4.992;2023-02-01T05:14:04;4.70;99.90
14409;DHT22;7289;50.706;4.992;2023-02-01T05:16:34;4.60;99.90
14409;DHT22;7289;50.706;4.992;2023-02-01T05:19:02;4.60;99.90
14409;DHT22;7289;50.706;4.992;2023-02-01T05:21:30;4.60;99.90
14409;DHT22;7289;50.706;4.992;2023-02-01T05:23:59;4.50;99.90
14409;DHT22;7289;50.706;4.992;2023-02-01T05:26:41;4.50;99.90
14409;DHT22;7289;50.706;4.992;2023-02-01T05:29:10;4.50;99.90
14409;DHT22;7289;50.706;4.992;2023-02-01T05:31:40;4.50;99.90
14409;DHT22;7289;50.706;4.992;2023-02-01T05:34:09;4.40;99.90
14409;DHT22;7289;50.706;4.992;2023-02-01T05:36:37;4.40;99.90
14409;DHT22;7289;50.706;4.992;2023-02-01T05:39:05;4.40;99.90
14409;DHT22;7289;50.706;4.992;2023-02-01T05:41:34;4.40;99.90
14409;DHT22;7289;50.706;4.992;2023-02-01T05:44:02;4.50;99.90
14409;DHT22;7289;50.706;4.992;2023-02-01T05:46:31;4.40;99.90
14409;DHT22;7289;50.706;4.992;2023-02-01T05:49:00;4.40;99.90
14409;DHT22;7289;50.706;4.992;2023-02-01T05:51:29;4.40;99.90
14409;DHT22;7289;50.706;4.992;2023-02-01T05:53:57;4.30;99.90
14409;DHT22;7289;50.706;4.992;2023-02-01T05:56:25;4.30;99.90
14409;DHT22;7289;50.706;4.992;2023-02-01T05:58:53;4.40;99.90
14409;DHT22;7289;50.706;4.992;2023-02-01T06:01:23;4.40;99.90
14409;DHT22;7289;50.706;4.992;2023-02-01T06:03:51;4.30;99.90
14409;DHT22;7289;50.706;4.992;2023-02-01T06:06:20;4.30;99.90
14409;DHT22;7289;50.706;4.992;2023-02-01T06:08:49;4.30;99.90
14409;DHT22;7289;50.706;4.992;2023-02-01T06:11:17;4.30;99.90
14409;DHT22;7289;50.706;4.992;2023-02-01T06:13:58;4.30;99.90
14409;DHT22;7289;50.706;4.992;2023-02-01T06:16:26;4.30;99.90
14409;DHT22;7289;50.706;4.992;2023-02-01T06:18:54;4.20;99.90
14409;DHT22;7289;50.706;4.992;2023-02-01T06:21:24;4.20;99.90
14409;DHT22;7289;50.706;4.992;2023-02-01T06:23:53;4.20;99.90
14409;DHT22;7289;50.706;4.992;2023-02-01T06:26:24;4.10;99.90
14409;DHT22;7289;50.706;4.992;2023-02-01T06:28:53;4.10;99.90
14409;DHT22;7289;50.706;4.992;2023-02-01T06:31:22;4.10;99.90
14409;DHT22;7289;50.706;4.992;2023-02-01T06:33:52;4.20;99.90
14409;DHT22;7289;50.706;4.992;2023-02-01T06:36:20;4.10;99.90
14409;DHT22;7289;50.706;4.992;2023-02-01T06:38:50;4.20;99.90
14409;DHT22;7289;50.706;4.992;2023-02-01T06:41:18;4.20;99.90
14409;DHT22;7289;50.706;4.992;2023-02-01T06:43:47;4.20;99.90
14409;DHT22;7289;50.706;4.992;2023-02-01T06:46:16;4.30;99.90
14409;DHT22;7289;50.706;4.992;2023-02-01T06:48:44;4.20;99.90
14409;DHT22;7289;50.706;4.992;2023-02-01T06:51:23;4.20;99.90
14409;DHT22;7289;50.706;4.992;2023-02-01T06:53:53;4.30;99.90
14409;DHT22;7289;50.706;4.992;2023-02-01T06:56:21;4.20;99.90
14409;DHT22;7289;50.706;4.992;2023-02-01T06:58:50;4.30;99.90
14409;DHT22;7289;50.706;4.992;2023-02-01T07:01:18;4.20;99.90
14409;DHT22;7289;50.706;4.992;2023-02-01T07:03:48;4.30;99.90
14409;DHT22;7289;50.706;4.992;2023-02-01T07:06:19;4.30;99.90
14409;DHT22;7289;50.706;4.992;2023-02-01T07:08:47;4.20;99.90
14409;DHT22;7289;50.706;4.992;2023-02-01T07:11:18;4.20;99.90
14409;DHT22;7289;50.706;4.992;2023-02-01T07:13:47;4.20;99.90
14409;DHT22;7289;50.706;4.992;2023-02-01T07:16:17;4.20;99.90
14409;DHT22;7289;50.706;4.992;2023-02-01T07:18:46;4.20;99.90
14409;DHT22;7289;50.706;4.992;2023-02-01T07:21:15;4.20;99.90
14409;DHT22;7289;50.706;4.992;2023-02-01T07:23:43;4.20;99.90
14409;DHT22;7289;50.706;4.992;2023-02-01T07:26:13;4.20;99.90
14409;DHT22;7289;50.706;4.992;2023-02-01T07:28:43;4.20;99.90
14409;DHT22;7289;50.706;4.992;2023-02-01T07:31:13;4.20;99.90
14409;DHT22;7289;50.706;4.992;2023-02-01T07:33:42;4.20;99.90
14409;DHT22;7289;50.706;4.992;2023-02-01T07:36:15;4.10;99.90
14409;DHT22;7289;50.706;4.992;2023-02-01T07:38:44;4.10;99.90
14409;DHT22;7289;50.706;4.992;2023-02-01T07:41:14;4.10;99.90
14409;DHT22;7289;50.706;4.992;2023-02-01T07:43:44;4.20;99.90
14409;DHT22;7289;50.706;4.992;2023-02-01T07:46:14;4.20;99.90
14409;DHT22;7289;50.706;4.992;2023-02-01T07:48:43;4.20;99.90
14409;DHT22;7289;50.706;4.992;2023-02-01T07:51:13;4.20;99.90
14409;DHT22;7289;50.706;4.992;2023-02-01T07:53:42;4.20;99.90
14409;DHT22;7289;50.706;4.992;2023-02-01T07:56:13;4.30;99.90
14409;DHT22;7289;50.706;4.992;2023-02-01T07:58:41;4.40;99.90
14409;DHT22;7289;50.706;4.992;2023-02-01T08:01:15;4.50;99.90
14409;DHT22;7289;50.706;4.992;2023-02-01T08:03:53;4.60;99.90
14409;DHT22;7289;50.706;4.992;2023-02-01T08:06:22;4.60;99.90
14409;DHT22;7289;50.706;4.992;2023-02-01T08:08:52;4.60;99.90
14409;DHT22;7289;50.706;4.992;2023-02-01T08:11:22;4.60;99.90
14409;DHT22;7289;50.706;4.992;2023-02-01T08:13:52;4.70;99.90
14409;DHT22;7289;50.706;4.992;2023-02-01T08:16:27;4.80;99.90
14409;DHT22;7289;50.706;4.992;2023-02-01T08:18:55;4.80;99.90
14409;DHT22;7289;50.706;4.992;2023-02-01T08:21:26;4.90;99.90
14409;DHT22;7289;50.706;4.992;2023-02-01T08:24:07;5.00;99.90
14409;DHT22;7289;50.706;4.992;2023-02-01T08:26:36;5.20;99.90
14409;DHT22;7289;50.706;4.992;2023-02-01T08:29:06;5.30;99.90
14409;DHT22;7289;50.706;4.992;2023-02-01T08:31:37;5.60;99.90
14409;DHT22;7289;50.706;4.992;2023-02-01T08:34:08;5.60;99.90
14409;DHT22;7289;50.706;4.992;2023-02-01T08:36:38;5.70;99.90
14409;DHT22;7289;50.706;4.992;2023-02-01T08:39:09;5.70;99.90
14409;DHT22;7289;50.706;4.992;2023-02-01T08:41:38;5.70;99.90
14409;DHT22;7289;50.706;4.992;2023-02-01T08:44:06;5.70;99.90
14409;DHT22;7289;50.706;4.992;2023-02-01T08:46:36;5.80;99.90
14409;DHT22;7289;50.706;4.992;2023-02-01T08:49:04;5.80;99.90
14409;DHT22;7289;50.706;4.992;2023-02-01T08:51:33;5.90;99.90
14409;DHT22;7289;50.706;4.992;2023-02-01T08:54:01;5.90;99.90
14409;DHT22;7289;50.706;4.992;2023-02-01T08:56:29;5.90;99.90
14409;DHT22;7289;50.706;4.992;2023-02-01T08:58:58;6.00;99.90
14409;DHT22;7289;50.706;4.992;2023-02-01T09:01:26;6.00;99.90
14409;DHT22;7289;50.706;4.992;2023-02-01T09:03:56;6.20;99.90
14409;DHT22;7289;50.706;4.992;2023-02-01T09:06:24;6.30;99.90
14409;DHT22;7289;50.706;4.992;2023-02-01T09:08:52;6.30;99.90
14409;DHT22;7289;50.706;4.992;2023-02-01T09:11:21;6.40;99.90
14409;DHT22;7289;50.706;4.992;2023-02-01T09:13:50;6.50;99.90
14409;DHT22;7289;50.706;4.992;2023-02-01T09:16:18;6.40;99.90
14409;DHT22;7289;50.706;4.992;2023-02-01T09:18:47;6.50;99.90
14409;DHT22;7289;50.706;4.992;2023-02-01T09:21:36;6.50;99.90
14409;DHT22;7289;50.706;4.992;2023-02-01T09:24:05;6.60;99.90
14409;DHT22;7289;50.706;4.992;2023-02-01T09:26:34;6.60;99.90
14409;DHT22;7289;50.706;4.992;2023-02-01T09:29:02;6.60;99.90
14409;DHT22;7289;50.706;4.992;2023-02-01T09:31:33;6.50;99.90
14409;DHT22;7289;50.706;4.992;2023-02-01T09:34:01;6.60;99.90
14409;DHT22;7289;50.706;4.992;2023-02-01T09:36:30;6.70;99.90
14409;DHT22;7289;50.706;4.992;2023-02-01T09:38:59;6.70;99.90
14409;DHT22;7289;50.706;4.992;2023-02-01T09:41:39;6.80;99.90
14409;DHT22;7289;50.706;4.992;2023-02-01T09:44:21;6.80;99.90
14409;DHT22;7289;50.706;4.992;2023-02-01T09:47:11;6.80;99.90
14409;DHT22;7289;50.706;4.992;2023-02-01T09:49:48;6.70;99.90
14409;DHT22;7289;50.706;4.992;2023-02-01T09:52:22;6.80;99.90
14409;DHT22;7289;50.706;4.992;2023-02-01T09:54:56;6.90;99.90
14409;DHT22;7289;50.706;4.992;2023-02-01T09:57:39;6.90;99.90
14409;DHT22;7289;50.706;4.992;2023-02-01T10:00:16;6.80;99.90
14409;DHT22;7289;50.706;4.992;2023-02-01T10:02:45;6.90;99.90
14409;DHT22;7289;50.706;4.992;2023-02-01T10:05:16;7.00;99.90
14409;DHT22;7289;50.706;4.992;2023-02-01T10:07:53;7.10;99.90
14409;DHT22;7289;50.706;4.992;2023-02-01T10:10:30;7.10;99.90
14409;DHT22;7289;50.706;4.992;2023-02-01T10:13:27;7.20;99.90
14409;DHT22;7289;50.706;4.992;2023-02-01T10:16:08;7.20;99.90
14409;DHT22;7289;50.706;4.992;2023-02-01T10:21:43;7.30;99.90
14409;DHT22;7289;50.706;4.992;2023-02-01T10:24:34;7.40;99.90
14409;DHT22;7289;50.706;4.992;2023-02-01T10:27:12;7.40;99.90
14409;DHT22;7289;50.706;4.992;2023-02-01T10:29:42;7.40;99.90
14409;DHT22;7289;50.706;4.992;2023-02-01T10:32:14;7.40;99.90
14409;DHT22;7289;50.706;4.992;2023-02-01T10:34:46;7.60;99.90
14409;DHT22;7289;50.706;4.992;2023-02-01T10:37:23;7.70;99.90
14409;DHT22;7289;50.706;4.992;2023-02-01T10:39:54;7.80;99.90
14409;DHT22;7289;50.706;4.992;2023-02-01T10:42:27;7.90;99.90
14409;DHT22;7289;50.706;4.992;2023-02-01T10:44:57;8.00;99.90
14409;DHT22;7289;50.706;4.992;2023-02-01T10:47:26;8.00;99.90
14409;DHT22;7289;50.706;4.992;2023-02-01T10:50:04;8.10;99.90
14409;DHT22;7289;50.706;4.992;2023-02-01T10:52:46;8.20;99.90
14409;DHT22;7289;50.706;4.992;2023-02-01T10:55:47;8.20;99.90
14409;DHT22;7289;50.706;4.992;2023-02-01T10:58:19;8.30;99.90
14409;DHT22;7289;50.706;4.992;2023-02-01T11:00:53;8.20;99.90
14409;DHT22;7289;50.706;4.992;2023-02-01T11:03:39;8.30;99.90
14409;DHT22;7289;50.706;4.992;2023-02-01T11:06:17;8.30;99.90
14409;DHT22;7289;50.706;4.992;2023-02-01T11:08:47;8.30;99.90
14409;DHT22;7289;50.706;4.992;2023-02-01T11:11:17;8.40;99.90
14409;DHT22;7289;50.706;4.992;2023-02-01T11:13:55;8.40;99.90
14409;DHT22;7289;50.706;4.992;2023-02-01T11:16:31;8.50;99.90
14409;DHT22;7289;50.706;4.992;2023-02-01T11:19:01;8.60;99.90
14409;DHT22;7289;50.706;4.992;2023-02-01T11:21:29;8.60;99.90
14409;DHT22;7289;50.706;4.992;2023-02-01T11:24:02;8.70;99.90
14409;DHT22;7289;50.706;4.992;2023-02-01T11:26:32;8.70;99.90
14409;DHT22;7289;50.706;4.992;2023-02-01T11:29:05;8.70;99.90
14409;DHT22;7289;50.706;4.992;2023-02-01T11:31:37;8.70;99.90
14409;DHT22;7289;50.706;4.992;2023-02-01T11:34:11;8.70;99.90
14409;DHT22;7289;50.706;4.992;2023-02-01T11:36:41;8.70;99.90
14409;DHT22;7289;50.706;4.992;2023-02-01T11:39:20;8.60;99.90
14409;DHT22;7289;50.706;4.992;2023-02-01T11:42:01;8.60;99.90
14409;DHT22;7289;50.706;4.992;2023-02-01T11:44:34;8.50;99.90
14409;DHT22;7289;50.706;4.992;2023-02-01T11:47:24;8.50;99.90
14409;DHT22;7289;50.706;4.992;2023-02-01T11:49:54;8.40;99.90
14409;DHT22;7289;50.706;4.992;2023-02-01T11:52:50;8.40;99.90
14409;DHT22;7289;50.706;4.992;2023-02-01T11:55:35;8.50;99.90
14409;DHT22;7289;50.706;4.992;2023-02-01T11:58:31;8.70;99.90
14409;DHT22;7289;50.706;4.992;2023-02-01T12:01:19;8.90;99.90
14409;DHT22;7289;50.706;4.992;2023-02-01T12:04:15;9.00;99.90
14409;DHT22;7289;50.706;4.992;2023-02-01T12:06:50;9.00;99.90
14409;DHT22;7289;50.706;4.992;2023-02-01T12:09:47;9.10;99.90
14409;DHT22;7289;50.706;4.992;2023-02-01T12:12:23;9.10;99.90
14409;DHT22;7289;50.706;4.992;2023-02-01T12:15:08;9.20;99.90
14409;DHT22;7289;50.706;4.992;2023-02-01T12:17:56;9.40;99.90
14409;DHT22;7289;50.706;4.992;2023-02-01T12:23:32;9.40;99.90
14409;DHT22;7289;50.706;4.992;2023-02-01T12:26:16;9.50;99.90
14409;DHT22;7289;50.706;4.992;2023-02-01T12:29:08;9.50;99.90
14409;DHT22;7289;50.706;4.992;2023-02-01T12:32:05;9.60;99.90
14409;DHT22;7289;50.706;4.992;2023-02-01T12:34:58;9.60;99.90
14409;DHT22;7289;50.706;4.992;2023-02-01T12:37:36;9.70;99.90
14409;DHT22;7289;50.706;4.992;2023-02-01T12:40:21;9.70;99.90
14409;DHT22;7289;50.706;4.992;2023-02-01T12:42:59;9.80;99.90
14409;DHT22;7289;50.706;4.992;2023-02-01T12:45:33;9.60;99.90
14409;DHT22;7289;50.706;4.992;2023-02-01T12:48:25;9.70;99.90
14409;DHT22;7289;50.706;4.992;2023-02-01T12:51:00;9.70;99.90
14409;DHT22;7289;50.706;4.992;2023-02-01T12:53:40;9.90;99.90
14409;DHT22;7289;50.706;4.992;2023-02-01T12:56:16;10.00;99.90
14409;DHT22;7289;50.706;4.992;2023-02-01T12:58:49;10.00;99.80
14409;DHT22;7289;50.706;4.992;2023-02-01T13:01:27;9.90;99.90
14409;DHT22;7289;50.706;4.992;2023-02-01T13:04:03;10.30;99.90
14409;DHT22;7289;50.706;4.992;2023-02-01T13:06:41;10.40;99.80
14409;DHT22;7289;50.706;4.992;2023-02-01T13:09:19;10.50;98.90
14409;DHT22;7289;50.706;4.992;2023-02-01T13:11:50;10.50;98.70
14409;DHT22;7289;50.706;4.992;2023-02-01T13:14:27;10.50;98.80
14409;DHT22;7289;50.706;4.992;2023-02-01T13:17:00;10.70;99.40
14409;DHT22;7289;50.706;4.992;2023-02-01T13:19:35;10.80;98.60
14409;DHT22;7289;50.706;4.992;2023-02-01T13:22:10;10.90;99.00
14409;DHT22;7289;50.706;4.992;2023-02-01T13:24:43;11.00;98.70
14409;DHT22;7289;50.706;4.992;2023-02-01T13:27:13;11.00;98.40
14409;DHT22;7289;50.706;4.992;2023-02-01T13:29:48;11.10;98.50
14409;DHT22;7289;50.706;4.992;2023-02-01T13:35:56;11.10;98.20
14409;DHT22;7289;50.706;4.992;2023-02-01T13:39:02;10.80;98.40
14409;DHT22;7289;50.706;4.992;2023-02-01T13:41:35;10.90;97.80
14409;DHT22;7289;50.706;4.992;2023-02-01T13:44:12;11.00;98.30
14409;DHT22;7289;50.706;4.992;2023-02-01T13:46:44;11.10;97.80
14409;DHT22;7289;50.706;4.992;2023-02-01T13:49:20;11.20;97.90
14409;DHT22;7289;50.706;4.992;2023-02-01T13:51:52;11.20;98.00
14409;DHT22;7289;50.706;4.992;2023-02-01T13:54:28;11.00;97.40
14409;DHT22;7289;50.706;4.992;2023-02-01T13:56:58;11.10;96.80
14409;DHT22;7289;50.706;4.992;2023-02-01T13:59:50;11.00;97.00
14409;DHT22;7289;50.706;4.992;2023-02-01T14:03:02;10.90;97.90
14409;DHT22;7289;50.706;4.992;2023-02-01T14:05:56;10.90;97.90
14409;DHT22;7289;50.706;4.992;2023-02-01T14:08:41;10.80;97.90
14409;DHT22;7289;50.706;4.992;2023-02-01T14:11:34;10.80;98.10
14409;DHT22;7289;50.706;4.992;2023-02-01T14:17:36;10.40;97.90
14409;DHT22;7289;50.706;4.992;2023-02-01T14:23:29;10.20;98.60
14409;DHT22;7289;50.706;4.992;2023-02-01T14:26:19;10.10;98.80
14409;DHT22;7289;50.706;4.992;2023-02-01T14:29:02;10.10;99.00
14409;DHT22;7289;50.706;4.992;2023-02-01T14:31:44;10.00;99.30
14409;DHT22;7289;50.706;4.992;2023-02-01T14:34:18;10.00;98.80
14409;DHT22;7289;50.706;4.992;2023-02-01T14:36:51;10.10;99.30
14409;DHT22;7289;50.706;4.992;2023-02-01T14:39:33;10.10;99.10
14409;DHT22;7289;50.706;4.992;2023-02-01T14:42:13;10.20;98.80
14409;DHT22;7289;50.706;4.992;2023-02-01T14:44:43;10.30;98.60
14409;DHT22;7289;50.706;4.992;2023-02-01T14:47:29;10.40;99.00
14409;DHT22;7289;50.706;4.992;2023-02-01T14:50:27;10.30;99.00
14409;DHT22;7289;50.706;4.992;2023-02-01T14:53:13;10.20;99.00
14409;DHT22;7289;50.706;4.992;2023-02-01T14:55:44;10.20;99.20
14409;DHT22;7289;50.706;4.992;2023-02-01T14:58:21;10.20;98.80
14409;DHT22;7289;50.706;4.992;2023-02-01T15:00:55;10.20;99.20
14409;DHT22;7289;50.706;4.992;2023-02-01T15:06:22;9.90;99.40
14409;DHT22;7289;50.706;4.992;2023-02-01T15:08:54;9.90;99.60
14409;DHT22;7289;50.706;4.992;2023-02-01T15:11:23;10.00;99.90
14409;DHT22;7289;50.706;4.992;2023-02-01T15:13:53;9.90;99.90
14409;DHT22;7289;50.706;4.992;2023-02-01T15:16:25;9.90;99.90
14409;DHT22;7289;50.706;4.992;2023-02-01T15:19:12;9.80;99.90
14409;DHT22;7289;50.706;4.992;2023-02-01T15:21:46;9.80;99.90
14409;DHT22;7289;50.706;4.992;2023-02-01T15:24:19;9.90;99.90
14409;DHT22;7289;50.706;4.992;2023-02-01T15:26:48;9.90;99.90
14409;DHT22;7289;50.706;4.992;2023-02-01T15:29:18;9.80;99.90
14409;DHT22;7289;50.706;4.992;2023-02-01T15:31:50;9.70;99.90
14409;DHT22;7289;50.706;4.992;2023-02-01T15:34:19;9.80;99.90
14409;DHT22;7289;50.706;4.992;2023-02-01T15:36:48;9.80;99.90
14409;DHT22;7289;50.706;4.992;2023-02-01T15:39:29;9.80;99.90
14409;DHT22;7289;50.706;4.992;2023-02-01T15:42:01;9.70;99.90
14409;DHT22;7289;50.706;4.992;2023-02-01T15:44:39;9.70;99.90
14409;DHT22;7289;50.706;4.992;2023-02-01T15:47:15;9.70;99.90
14409;DHT22;7289;50.706;4.992;2023-02-01T15:49:46;9.70;99.90
14409;DHT22;7289;50.706;4.992;2023-02-01T15:52:24;9.60;99.90
14409;DHT22;7289;50.706;4.992;2023-02-01T15:54:57;9.50;99.90
14409;DHT22;7289;50.706;4.992;2023-02-01T15:57:28;9.40;99.90
14409;DHT22;7289;50.706;4.992;2023-02-01T16:00:00;9.30;99.90
14409;DHT22;7289;50.706;4.992;2023-02-01T16:02:43;9.30;99.90
14409;DHT22;7289;50.706;4.992;2023-02-01T16:05:30;9.20;99.90
14409;DHT22;7289;50.706;4.992;2023-02-01T16:08:03;9.20;99.90
14409;DHT22;7289;50.706;4.992;2023-02-01T16:10:38;9.20;99.90
14409;DHT22;7289;50.706;4.992;2023-02-01T16:13:07;9.10;99.90
14409;DHT22;7289;50.706;4.992;2023-02-01T16:15:36;9.10;99.90
14409;DHT22;7289;50.706;4.992;2023-02-01T16:18:06;9.00;99.90
14409;DHT22;7289;50.706;4.992;2023-02-01T16:20:35;9.00;99.90
14409;DHT22;7289;50.706;4.992;2023-02-01T16:23:04;9.00;99.90
14409;DHT22;7289;50.706;4.992;2023-02-01T16:25:33;8.90;99.90
14409;DHT22;7289;50.706;4.992;2023-02-01T16:28:02;8.90;99.90
14409;DHT22;7289;50.706;4.992;2023-02-01T16:30:31;8.90;99.90
14409;DHT22;7289;50.706;4.992;2023-02-01T16:33:01;8.80;99.90
14409;DHT22;7289;50.706;4.992;2023-02-01T16:35:34;8.90;99.90
14409;DHT22;7289;50.706;4.992;2023-02-01T16:38:04;8.90;99.90
14409;DHT22;7289;50.706;4.992;2023-02-01T16:40:35;8.90;99.90
14409;DHT22;7289;50.706;4.992;2023-02-01T16:43:11;8.90;99.90
14409;DHT22;7289;50.706;4.992;2023-02-01T16:45:40;8.90;99.90
14409;DHT22;7289;50.706;4.992;2023-02-01T16:48:17;9.00;99.90
14409;DHT22;7289;50.706;4.992;2023-02-01T16:50:50;9.00;99.90
14409;DHT22;7289;50.706;4.992;2023-02-01T16:53:20;8.90;99.90
14409;DHT22;7289;50.706;4.992;2023-02-01T16:55:49;9.00;99.90
14409;DHT22;7289;50.706;4.992;2023-02-01T16:58:19;9.00;99.90
14409;DHT22;7289;50.706;4.992;2023-02-01T17:00:48;9.00;99.90
14409;DHT22;7289;50.706;4.992;2023-02-01T17:03:18;8.90;99.90
14409;DHT22;7289;50.706;4.992;2023-02-01T17:05:50;8.90;99.90
14409;DHT22;7289;50.706;4.992;2023-02-01T17:08:24;8.90;99.90
14409;DHT22;7289;50.706;4.992;2023-02-01T17:10:53;8.80;99.90